createdAt,value
2023-01-21T00:00:10.431Z,2.82
2023-01-21T00:05:11.904Z,2.86
2023-01-21T00:10:13.374Z,2.83
2023-01-21T00:15:14.832Z,2.72
2023-01-21T00:20:16.884Z,2.60
2023-01-21T00:25:18.623Z,2.51
2023-01-21T00:30:20.299Z,2.30
2023-01-21T00:35:21.737Z,2.18
2023-01-21T00:40:23.219Z,2.01
2023-01-21T00:45:24.698Z,1.97
2023-01-21T00:50:26.098Z,1.96
2023-01-21T00:55:27.491Z,1.91
2023-01-21T01:00:28.986Z,1.87
2023-01-21T01:05:30.471Z,1.90
2023-01-21T01:10:31.876Z,1.94
2023-01-21T01:15:33.307Z,1.96
2023-01-21T01:20:34.726Z,1.93
2023-01-21T01:25:37.963Z,1.93
2023-01-21T01:30:39.462Z,2.03
2023-01-21T01:35:42.015Z,2.10
2023-01-21T01:40:43.663Z,2.08
2023-01-21T01:45:45.269Z,2.12
2023-01-21T01:50:48.076Z,2.16
2023-01-21T01:55:49.919Z,2.17
2023-01-21T02:00:51.474Z,2.15
2023-01-21T02:05:54.052Z,2.16
2023-01-21T02:10:56.525Z,2.14
2023-01-21T02:16:21.614Z,2.10
2023-01-21T02:21:49.959Z,2.10
2023-01-21T02:27:09.880Z,1.99
2023-01-21T02:32:32.957Z,1.89
2023-01-21T02:38:06.894Z,1.76
2023-01-21T02:43:43.386Z,1.63
2023-01-21T02:48:56.583Z,1.51
2023-01-21T02:53:58.020Z,1.44
2023-01-21T02:59:04.628Z,1.36
2023-01-21T03:04:32.711Z,1.29
2023-01-21T03:09:35.363Z,1.11
2023-01-21T03:15:02.277Z,1.01
2023-01-21T03:20:25.661Z,0.88
2023-01-21T03:25:31.515Z,0.77
2023-01-21T03:30:35.572Z,0.54
2023-01-21T03:35:42.992Z,0.44
2023-01-21T03:40:56.515Z,0.36
2023-01-21T03:46:01.268Z,0.29
2023-01-21T03:51:10.047Z,0.25
2023-01-21T03:56:11.557Z,0.21
2023-01-21T04:01:13.098Z,0.13
2023-01-21T04:06:17.187Z,0.09
2023-01-21T04:11:18.888Z,0.01
2023-01-21T04:16:20.412Z,-0.01
2023-01-21T04:21:21.968Z,-0.05
2023-01-21T04:26:23.533Z,-0.12
2023-01-21T04:31:25.143Z,-0.09
2023-01-21T04:36:26.652Z,-0.11
2023-01-21T04:41:28.212Z,-0.10
2023-01-21T04:46:29.711Z,-0.06
2023-01-21T04:51:31.248Z,-0.01
2023-01-21T04:56:32.664Z,0.04
2023-01-21T05:01:34.361Z,0.05
2023-01-21T05:06:35.809Z,-0.04
2023-01-21T05:11:37.497Z,-0.11
2023-01-21T05:16:39.040Z,-0.17
2023-01-21T05:21:41.722Z,-0.19
2023-01-21T05:26:44.894Z,-0.28
2023-01-21T05:31:46.532Z,-0.40
2023-01-21T05:36:48.062Z,-0.45
2023-01-21T05:41:50.153Z,-0.46
2023-01-21T05:46:53.002Z,-0.43
2023-01-21T05:51:54.957Z,-0.37
2023-01-21T05:56:56.628Z,-0.38
2023-01-21T06:02:01.048Z,-0.42
2023-01-21T06:07:02.515Z,-0.49
2023-01-21T06:12:04.144Z,-0.59
2023-01-21T06:17:05.940Z,-0.63
2023-01-21T06:22:07.423Z,-0.71
2023-01-21T06:27:08.840Z,-0.84
2023-01-21T06:32:10.487Z,-0.94
2023-01-21T06:37:12.041Z,-1.00
2023-01-21T06:42:13.601Z,-1.07
2023-01-21T06:47:15.687Z,-1.18
2023-01-21T06:52:17.603Z,-1.31
2023-01-21T06:57:22.360Z,-1.38
2023-01-21T07:02:23.812Z,-1.47
2023-01-21T07:07:25.411Z,-1.56
2023-01-21T07:12:27.036Z,-1.56
2023-01-21T07:17:28.544Z,-1.56
2023-01-21T07:22:30.003Z,-1.59
2023-01-21T07:27:31.833Z,-1.61
2023-01-21T07:32:33.397Z,-1.57
2023-01-21T07:37:34.889Z,-1.44
2023-01-21T07:42:36.435Z,-1.31
2023-01-21T07:47:37.922Z,-1.21
2023-01-21T07:52:40.044Z,-1.25
2023-01-21T07:57:41.496Z,-1.17
2023-01-21T08:02:43.016Z,-1.12
2023-01-21T08:07:44.610Z,-1.02
2023-01-21T08:12:46.155Z,-0.84
2023-01-21T08:17:48.992Z,-0.59
2023-01-21T08:22:50.963Z,-0.25
2023-01-21T08:27:54.207Z,-0.10
2023-01-21T08:32:55.966Z,-0.13
2023-01-21T08:37:57.579Z,-0.06
2023-01-21T08:43:00.153Z,0.18
2023-01-21T08:48:04.038Z,0.12
2023-01-21T08:53:05.559Z,0.09
2023-01-21T08:58:06.994Z,0.06
2023-01-21T09:03:08.824Z,-0.06
2023-01-21T09:08:10.403Z,-0.16
2023-01-21T09:13:12.853Z,-0.03
2023-01-21T09:18:14.736Z,0.07
2023-01-21T09:23:25.621Z,0.04
2023-01-21T09:28:32.189Z,0.03
2023-01-21T09:33:37.873Z,0.13
2023-01-21T09:38:42.595Z,0.24
2023-01-21T09:43:49.052Z,0.25
2023-01-21T09:48:51.740Z,0.29
2023-01-21T09:53:57.986Z,0.34
2023-01-21T09:59:22.469Z,0.49
2023-01-21T10:04:46.172Z,0.68
2023-01-21T10:10:14.710Z,0.84
2023-01-21T10:15:41.396Z,1.04
2023-01-21T10:20:58.950Z,1.27
2023-01-21T10:26:07.131Z,1.40
2023-01-21T10:31:28.668Z,1.42
2023-01-21T10:36:49.484Z,1.54
2023-01-21T10:42:17.530Z,1.76
2023-01-21T10:47:44.927Z,1.93
2023-01-21T10:52:55.295Z,1.95
2023-01-21T10:58:26.111Z,2.06
2023-01-21T11:03:46.070Z,2.06
2023-01-21T11:08:59.852Z,1.91
2023-01-21T11:14:02.092Z,1.74
2023-01-21T11:19:06.846Z,1.73
2023-01-21T11:24:23.546Z,1.77
2023-01-21T11:29:26.209Z,1.92
2023-01-21T11:34:28.524Z,1.96
2023-01-21T11:39:35.468Z,1.95
2023-01-21T11:44:54.311Z,1.86
2023-01-21T11:50:03.346Z,1.80
2023-01-21T11:55:17.674Z,1.77
2023-01-21T12:00:22.796Z,1.77
2023-01-21T12:05:37.328Z,1.53
2023-01-21T12:10:44.622Z,1.38
2023-01-21T12:15:52.436Z,1.38
2023-01-21T12:20:57.216Z,1.31
2023-01-21T12:26:05.329Z,1.15
2023-01-21T12:31:23.853Z,1.05
2023-01-21T12:36:33.509Z,1.14
2023-01-21T12:41:40.437Z,1.04
2023-01-21T12:46:47.629Z,0.96
2023-01-21T12:52:14.819Z,0.87
2023-01-21T12:57:27.825Z,0.78
2023-01-21T13:02:53.109Z,0.77
2023-01-21T13:08:03.542Z,0.83
2023-01-21T13:13:14.174Z,0.92
2023-01-21T13:18:33.980Z,1.00
2023-01-21T13:23:48.297Z,0.98
2023-01-21T13:29:16.421Z,1.03
2023-01-21T13:34:39.995Z,1.03
2023-01-21T13:39:55.096Z,1.01
2023-01-21T13:45:15.937Z,1.01
2023-01-21T13:50:59.649Z,0.97
2023-01-21T13:56:13.930Z,1.00
2023-01-21T14:01:23.561Z,1.03
2023-01-21T14:06:40.628Z,0.95
2023-01-21T14:11:50.005Z,0.96
2023-01-21T14:16:52.874Z,1.02
2023-01-21T14:22:16.692Z,1.00
2023-01-21T14:27:27.785Z,0.97
2023-01-21T14:32:38.104Z,1.05
2023-01-21T14:37:40.457Z,1.08
2023-01-21T14:42:49.275Z,1.06
2023-01-21T14:47:55.843Z,1.09
2023-01-21T14:52:58.000Z,1.03
2023-01-21T14:58:01.856Z,1.03
2023-01-21T15:03:03.437Z,1.01
2023-01-21T15:08:23.893Z,0.93
2023-01-21T15:13:32.929Z,0.92
2023-01-21T15:18:38.710Z,0.89
2023-01-21T15:23:41.542Z,0.87
2023-01-21T15:28:44.883Z,0.83
2023-01-21T15:33:58.946Z,0.84
2023-01-21T15:39:29.034Z,0.81
2023-01-21T15:44:47.501Z,0.86
2023-01-21T15:50:00.164Z,0.81
2023-01-21T15:55:32.611Z,0.83
2023-01-21T16:00:43.112Z,0.84
2023-01-21T16:05:50.568Z,0.85
2023-01-21T16:11:01.598Z,0.82
2023-01-21T16:16:12.729Z,0.81
2023-01-21T16:21:16.079Z,0.77
2023-01-21T16:26:26.220Z,0.74
2023-01-21T16:31:27.869Z,0.72
2023-01-21T16:36:38.236Z,0.74
2023-01-21T16:41:39.785Z,0.84
2023-01-21T16:46:41.775Z,0.80
2023-01-21T16:52:18.929Z,0.74
2023-01-21T16:57:31.495Z,0.74
2023-01-21T17:02:34.118Z,0.79
2023-01-21T17:07:43.623Z,0.72
2023-01-21T17:12:59.229Z,0.73
2023-01-21T17:18:01.242Z,0.76
2023-01-21T17:23:08.059Z,0.83
2023-01-21T17:28:29.369Z,0.86
2023-01-21T17:33:30.940Z,0.89
2023-01-21T17:38:38.926Z,0.88
2023-01-21T17:43:47.823Z,0.90
2023-01-21T17:48:53.818Z,0.94
2023-01-21T17:54:02.093Z,0.96
2023-01-21T17:59:21.620Z,0.99
2023-01-21T18:04:23.192Z,1.05
2023-01-21T18:09:25.659Z,1.06
2023-01-21T18:14:27.458Z,1.13
2023-01-21T18:19:31.204Z,1.15
2023-01-21T18:24:33.009Z,1.16
2023-01-21T18:29:34.561Z,1.17
2023-01-21T18:34:36.300Z,1.24
2023-01-21T18:39:37.978Z,1.28
2023-01-21T18:44:39.775Z,1.31
2023-01-21T18:49:41.475Z,1.31
2023-01-21T18:54:43.108Z,1.34
2023-01-21T18:59:44.694Z,1.37
2023-01-21T19:04:47.372Z,1.31
2023-01-21T19:09:51.214Z,1.31
2023-01-21T19:14:53.265Z,1.30
2023-01-21T19:19:55.470Z,1.35
2023-01-21T19:24:56.955Z,1.41
2023-01-21T19:30:01.431Z,1.40
2023-01-21T19:35:02.932Z,1.37
2023-01-21T19:40:13.443Z,1.26
2023-01-21T19:45:20.110Z,1.19
2023-01-21T19:50:24.503Z,1.16
2023-01-21T19:55:26.134Z,1.09
2023-01-21T20:00:33.107Z,1.10
2023-01-21T20:05:34.801Z,1.13
2023-01-21T20:10:36.584Z,1.04
2023-01-21T20:15:38.191Z,1.04
2023-01-21T20:20:39.733Z,1.06
2023-01-21T20:25:43.616Z,1.06
2023-01-21T20:30:45.760Z,1.05
2023-01-21T20:35:49.300Z,1.02
2023-01-21T20:40:50.834Z,0.99
2023-01-21T20:45:53.410Z,0.98
2023-01-21T20:50:55.201Z,0.96
2023-01-21T20:56:00.379Z,0.98
2023-01-21T21:01:01.863Z,0.95
2023-01-21T21:06:10.868Z,0.96
2023-01-21T21:11:14.754Z,0.99
2023-01-21T21:16:26.247Z,0.99
2023-01-21T21:21:27.790Z,0.97
2023-01-21T21:26:29.554Z,0.94
2023-01-21T21:31:32.697Z,0.87
2023-01-21T21:36:34.260Z,0.85
2023-01-21T21:41:54.604Z,0.88
2023-01-21T21:47:14.656Z,0.89
2023-01-21T21:52:17.779Z,0.91
2023-01-21T21:57:19.240Z,0.91
2023-01-21T22:02:21.061Z,0.88
2023-01-21T22:07:22.636Z,0.88
2023-01-21T22:12:24.224Z,0.88
2023-01-21T22:17:25.866Z,0.91
2023-01-21T22:22:27.534Z,0.93
2023-01-21T22:27:29.839Z,0.90
2023-01-21T22:32:31.315Z,0.86
2023-01-21T22:37:32.824Z,0.86
2023-01-21T22:42:34.435Z,0.89
2023-01-21T22:47:35.959Z,0.95
2023-01-21T22:52:37.500Z,0.93
2023-01-21T22:57:38.928Z,0.96
2023-01-21T23:02:40.324Z,1.00
2023-01-21T23:07:41.889Z,1.02
2023-01-21T23:12:43.331Z,1.10
2023-01-21T23:17:44.844Z,1.15
2023-01-21T23:22:46.309Z,1.18
2023-01-21T23:27:47.783Z,1.17
2023-01-21T23:32:49.204Z,1.12
2023-01-21T23:37:50.681Z,1.08
2023-01-21T23:42:52.077Z,1.12
2023-01-21T23:47:54.859Z,1.13
2023-01-21T23:52:56.522Z,1.11
2023-01-21T23:57:57.963Z,1.05
